sensor_id;sensor_type;location;lat;lon;timestamp;P1;durP1;ratioP1;P2;durP2;ratioP2
30096;SDS011;16915;51.466;3.610;2022-07-23T00:01:17;2.55;;;1.98;;
30096;SDS011;16915;51.466;3.610;2022-07-23T00:03:43;2.60;;;2.20;;
30096;SDS011;16915;51.466;3.610;2022-07-23T00:06:09;2.33;;;2.08;;
30096;SDS011;16915;51.466;3.610;2022-07-23T00:08:36;4.95;;;2.22;;
30096;SDS011;16915;51.466;3.610;2022-07-23T00:11:02;4.32;;;2.53;;
30096;SDS011;16915;51.466;3.610;2022-07-23T00:13:28;2.95;;;2.15;;
30096;SDS011;16915;51.466;3.610;2022-07-23T00:15:53;2.30;;;2.10;;
30096;SDS011;16915;51.466;3.610;2022-07-23T00:18:20;2.63;;;2.42;;
30096;SDS011;16915;51.466;3.610;2022-07-23T00:20:46;3.92;;;2.53;;
30096;SDS011;16915;51.466;3.610;2022-07-23T00:23:12;4.15;;;2.20;;
30096;SDS011;16915;51.466;3.610;2022-07-23T00:25:39;3.67;;;2.50;;
30096;SDS011;16915;51.466;3.610;2022-07-23T00:28:04;5.88;;;2.40;;
30096;SDS011;16915;51.466;3.610;2022-07-23T00:30:30;3.22;;;2.50;;
30096;SDS011;16915;51.466;3.610;2022-07-23T00:33:00;4.03;;;2.85;;
30096;SDS011;16915;51.466;3.610;2022-07-23T00:37:55;3.22;;;2.67;;
30096;SDS011;16915;51.466;3.610;2022-07-23T00:40:22;5.20;;;2.17;;
30096;SDS011;16915;51.466;3.610;2022-07-23T00:42:48;7.13;;;3.20;;
30096;SDS011;16915;51.466;3.610;2022-07-23T00:45:14;2.88;;;2.60;;
30096;SDS011;16915;51.466;3.610;2022-07-23T00:47:40;3.63;;;2.53;;
30096;SDS011;16915;51.466;3.610;2022-07-23T00:50:06;3.50;;;2.45;;
30096;SDS011;16915;51.466;3.610;2022-07-23T00:52:33;4.45;;;2.33;;
30096;SDS011;16915;51.466;3.610;2022-07-23T00:55:00;2.92;;;2.72;;
30096;SDS011;16915;51.466;3.610;2022-07-23T00:57:27;4.30;;;2.33;;
30096;SDS011;16915;51.466;3.610;2022-07-23T00:59:52;3.55;;;2.83;;
30096;SDS011;16915;51.466;3.610;2022-07-23T01:02:18;4.50;;;2.72;;
30096;SDS011;16915;51.466;3.610;2022-07-23T01:04:44;5.28;;;2.78;;
30096;SDS011;16915;51.466;3.610;2022-07-23T01:07:10;4.38;;;2.70;;
30096;SDS011;16915;51.466;3.610;2022-07-23T01:09:36;6.50;;;2.25;;
30096;SDS011;16915;51.466;3.610;2022-07-23T01:12:03;4.05;;;2.38;;
30096;SDS011;16915;51.466;3.610;2022-07-23T01:14:28;2.63;;;2.00;;
30096;SDS011;16915;51.466;3.610;2022-07-23T01:16:55;3.25;;;2.25;;
30096;SDS011;16915;51.466;3.610;2022-07-23T01:19:23;2.97;;;2.08;;
30096;SDS011;16915;51.466;3.610;2022-07-23T01:21:50;6.28;;;2.05;;
30096;SDS011;16915;51.466;3.610;2022-07-23T01:24:17;3.83;;;1.95;;
30096;SDS011;16915;51.466;3.610;2022-07-23T01:26:46;4.60;;;2.20;;
30096;SDS011;16915;51.466;3.610;2022-07-23T01:29:12;3.15;;;1.90;;
30096;SDS011;16915;51.466;3.610;2022-07-23T01:31:39;3.30;;;1.90;;
30096;SDS011;16915;51.466;3.610;2022-07-23T01:34:05;2.97;;;1.80;;
30096;SDS011;16915;51.466;3.610;2022-07-23T01:36:32;2.13;;;1.92;;
30096;SDS011;16915;51.466;3.610;2022-07-23T01:38:59;3.60;;;1.92;;
30096;SDS011;16915;51.466;3.610;2022-07-23T01:41:25;3.58;;;2.10;;
30096;SDS011;16915;51.466;3.610;2022-07-23T01:43:50;3.40;;;1.88;;
30096;SDS011;16915;51.466;3.610;2022-07-23T01:46:19;4.50;;;1.80;;
30096;SDS011;16915;51.466;3.610;2022-07-23T01:48:45;2.97;;;2.47;;
30096;SDS011;16915;51.466;3.610;2022-07-23T01:51:11;2.10;;;1.88;;
30096;SDS011;16915;51.466;3.610;2022-07-23T01:53:48;3.70;;;2.42;;
30096;SDS011;16915;51.466;3.610;2022-07-23T01:56:14;2.47;;;2.20;;
30096;SDS011;16915;51.466;3.610;2022-07-23T01:58:40;2.60;;;2.40;;
30096;SDS011;16915;51.466;3.610;2022-07-23T02:01:21;3.08;;;2.08;;
30096;SDS011;16915;51.466;3.610;2022-07-23T02:04:02;2.95;;;2.13;;
30096;SDS011;16915;51.466;3.610;2022-07-23T02:06:37;2.60;;;2.40;;
30096;SDS011;16915;51.466;3.610;2022-07-23T02:09:16;6.47;;;2.85;;
30096;SDS011;16915;51.466;3.610;2022-07-23T02:11:49;4.97;;;2.30;;
30096;SDS011;16915;51.466;3.610;2022-07-23T02:14:15;4.30;;;2.45;;
30096;SDS011;16915;51.466;3.610;2022-07-23T02:16:40;8.02;;;2.67;;
30096;SDS011;16915;51.466;3.610;2022-07-23T02:19:08;2.75;;;2.47;;
30096;SDS011;16915;51.466;3.610;2022-07-23T02:21:45;4.95;;;2.10;;
30096;SDS011;16915;51.466;3.610;2022-07-23T02:26:42;5.57;;;2.35;;
30096;SDS011;16915;51.466;3.610;2022-07-23T02:29:09;5.30;;;2.45;;
30096;SDS011;16915;51.466;3.610;2022-07-23T02:31:46;5.70;;;2.60;;
30096;SDS011;16915;51.466;3.610;2022-07-23T02:34:12;2.75;;;2.55;;
30096;SDS011;16915;51.466;3.610;2022-07-23T02:36:39;4.60;;;2.38;;
30096;SDS011;16915;51.466;3.610;2022-07-23T02:39:08;4.10;;;2.65;;
30096;SDS011;16915;51.466;3.610;2022-07-23T02:41:54;3.42;;;2.63;;
30096;SDS011;16915;51.466;3.610;2022-07-23T02:44:24;2.92;;;2.53;;
30096;SDS011;16915;51.466;3.610;2022-07-23T02:47:22;2.47;;;2.25;;
30096;SDS011;16915;51.466;3.610;2022-07-23T02:50:34;6.13;;;2.30;;
30096;SDS011;16915;51.466;3.610;2022-07-23T02:53:05;3.47;;;2.60;;
30096;SDS011;16915;51.466;3.610;2022-07-23T02:55:36;5.80;;;2.65;;
30096;SDS011;16915;51.466;3.610;2022-07-23T03:01:01;4.57;;;2.75;;
30096;SDS011;16915;51.466;3.610;2022-07-23T03:03:50;4.20;;;2.60;;
30096;SDS011;16915;51.466;3.610;2022-07-23T03:06:39;3.08;;;2.40;;
30096;SDS011;16915;51.466;3.610;2022-07-23T03:09:05;4.18;;;2.38;;
30096;SDS011;16915;51.466;3.610;2022-07-23T03:11:32;3.80;;;2.30;;
30096;SDS011;16915;51.466;3.610;2022-07-23T03:14:00;4.18;;;2.20;;
30096;SDS011;16915;51.466;3.610;2022-07-23T03:16:35;5.32;;;2.95;;
30096;SDS011;16915;51.466;3.610;2022-07-23T03:19:01;2.85;;;2.58;;
30096;SDS011;16915;51.466;3.610;2022-07-23T03:21:32;2.73;;;2.53;;
30096;SDS011;16915;51.466;3.610;2022-07-23T03:24:00;3.55;;;3.00;;
30096;SDS011;16915;51.466;3.610;2022-07-23T03:26:31;4.35;;;3.30;;
30096;SDS011;16915;51.466;3.610;2022-07-23T03:29:02;3.00;;;2.78;;
30096;SDS011;16915;51.466;3.610;2022-07-23T03:31:34;3.00;;;2.80;;
30096;SDS011;16915;51.466;3.610;2022-07-23T03:34:12;5.72;;;2.85;;
30096;SDS011;16915;51.466;3.610;2022-07-23T03:36:48;3.15;;;2.42;;
30096;SDS011;16915;51.466;3.610;2022-07-23T03:39:53;4.03;;;2.80;;
30096;SDS011;16915;51.466;3.610;2022-07-23T03:42:39;3.95;;;2.35;;
30096;SDS011;16915;51.466;3.610;2022-07-23T03:45:14;3.42;;;3.13;;
30096;SDS011;16915;51.466;3.610;2022-07-23T03:51:08;4.25;;;2.78;;
30096;SDS011;16915;51.466;3.610;2022-07-23T03:53:36;3.60;;;3.15;;
30096;SDS011;16915;51.466;3.610;2022-07-23T03:56:23;3.25;;;2.90;;
30096;SDS011;16915;51.466;3.610;2022-07-23T03:59:09;5.45;;;3.20;;
30096;SDS011;16915;51.466;3.610;2022-07-23T04:04:32;4.07;;;3.45;;
30096;SDS011;16915;51.466;3.610;2022-07-23T04:07:15;6.30;;;3.50;;
30096;SDS011;16915;51.466;3.610;2022-07-23T04:10:07;5.78;;;3.88;;
30096;SDS011;16915;51.466;3.610;2022-07-23T04:12:39;6.43;;;3.50;;
30096;SDS011;16915;51.466;3.610;2022-07-23T04:15:07;3.80;;;3.50;;
30096;SDS011;16915;51.466;3.610;2022-07-23T04:17:55;4.97;;;3.70;;
30096;SDS011;16915;51.466;3.610;2022-07-23T04:20:44;4.18;;;3.65;;
30096;SDS011;16915;51.466;3.610;2022-07-23T04:23:35;8.05;;;4.30;;
30096;SDS011;16915;51.466;3.610;2022-07-23T04:26:06;5.15;;;4.10;;
30096;SDS011;16915;51.466;3.610;2022-07-23T04:28:54;6.20;;;3.97;;
30096;SDS011;16915;51.466;3.610;2022-07-23T04:31:37;6.40;;;4.43;;
30096;SDS011;16915;51.466;3.610;2022-07-23T04:34:24;4.30;;;3.90;;
30096;SDS011;16915;51.466;3.610;2022-07-23T04:36:53;8.85;;;4.80;;
30096;SDS011;16915;51.466;3.610;2022-07-23T04:39:43;6.20;;;5.22;;
30096;SDS011;16915;51.466;3.610;2022-07-23T04:42:20;5.32;;;4.78;;
30096;SDS011;16915;51.466;3.610;2022-07-23T04:44:56;7.07;;;5.57;;
30096;SDS011;16915;51.466;3.610;2022-07-23T04:47:35;12.07;;;5.65;;
30096;SDS011;16915;51.466;3.610;2022-07-23T04:50:15;6.00;;;5.40;;
30096;SDS011;16915;51.466;3.610;2022-07-23T04:52:52;7.88;;;5.70;;
30096;SDS011;16915;51.466;3.610;2022-07-23T04:55:42;7.35;;;5.70;;
30096;SDS011;16915;51.466;3.610;2022-07-23T04:58:08;7.55;;;5.53;;
30096;SDS011;16915;51.466;3.610;2022-07-23T05:00:35;9.63;;;5.38;;
30096;SDS011;16915;51.466;3.610;2022-07-23T05:03:03;7.90;;;5.22;;
30096;SDS011;16915;51.466;3.610;2022-07-23T05:05:29;8.35;;;5.45;;
30096;SDS011;16915;51.466;3.610;2022-07-23T05:07:55;10.30;;;5.95;;
30096;SDS011;16915;51.466;3.610;2022-07-23T05:10:21;7.20;;;6.18;;
30096;SDS011;16915;51.466;3.610;2022-07-23T05:12:46;7.18;;;5.22;;
30096;SDS011;16915;51.466;3.610;2022-07-23T05:15:12;6.82;;;5.53;;
30096;SDS011;16915;51.466;3.610;2022-07-23T05:17:42;6.32;;;5.40;;
30096;SDS011;16915;51.466;3.610;2022-07-23T05:20:12;7.45;;;4.80;;
30096;SDS011;16915;51.466;3.610;2022-07-23T05:22:38;6.35;;;5.70;;
30096;SDS011;16915;51.466;3.610;2022-07-23T05:25:04;6.20;;;5.20;;
30096;SDS011;16915;51.466;3.610;2022-07-23T05:27:30;6.22;;;5.10;;
30096;SDS011;16915;51.466;3.610;2022-07-23T05:29:56;6.82;;;5.53;;
30096;SDS011;16915;51.466;3.610;2022-07-23T05:32:22;6.18;;;5.57;;
30096;SDS011;16915;51.466;3.610;2022-07-23T05:34:48;9.30;;;5.30;;
30096;SDS011;16915;51.466;3.610;2022-07-23T05:37:13;8.48;;;5.57;;
30096;SDS011;16915;51.466;3.610;2022-07-23T05:39:39;5.22;;;4.50;;
30096;SDS011;16915;51.466;3.610;2022-07-23T05:42:04;6.45;;;4.75;;
30096;SDS011;16915;51.466;3.610;2022-07-23T05:44:30;7.30;;;4.55;;
30096;SDS011;16915;51.466;3.610;2022-07-23T05:46:56;5.78;;;4.50;;
30096;SDS011;16915;51.466;3.610;2022-07-23T05:49:21;5.22;;;4.03;;
30096;SDS011;16915;51.466;3.610;2022-07-23T05:51:47;6.40;;;4.07;;
30096;SDS011;16915;51.466;3.610;2022-07-23T05:54:12;4.43;;;3.95;;
30096;SDS011;16915;51.466;3.610;2022-07-23T05:56:38;5.82;;;3.38;;
30096;SDS011;16915;51.466;3.610;2022-07-23T05:59:04;8.93;;;3.00;;
30096;SDS011;16915;51.466;3.610;2022-07-23T06:01:29;4.35;;;3.05;;
30096;SDS011;16915;51.466;3.610;2022-07-23T06:03:55;3.75;;;3.15;;
30096;SDS011;16915;51.466;3.610;2022-07-23T06:06:20;5.20;;;3.30;;
30096;SDS011;16915;51.466;3.610;2022-07-23T06:08:46;4.93;;;3.15;;
30096;SDS011;16915;51.466;3.610;2022-07-23T06:11:12;6.28;;;2.90;;
30096;SDS011;16915;51.466;3.610;2022-07-23T06:13:37;2.63;;;2.45;;
30096;SDS011;16915;51.466;3.610;2022-07-23T06:16:03;4.80;;;2.25;;
30096;SDS011;16915;51.466;3.610;2022-07-23T06:18:29;2.70;;;2.45;;
30096;SDS011;16915;51.466;3.610;2022-07-23T06:20:54;2.85;;;2.40;;
30096;SDS011;16915;51.466;3.610;2022-07-23T06:23:20;3.45;;;2.60;;
30096;SDS011;16915;51.466;3.610;2022-07-23T06:25:46;3.05;;;2.47;;
30096;SDS011;16915;51.466;3.610;2022-07-23T06:28:11;3.08;;;2.80;;
30096;SDS011;16915;51.466;3.610;2022-07-23T06:30:37;4.65;;;2.45;;
30096;SDS011;16915;51.466;3.610;2022-07-23T06:33:03;4.03;;;1.95;;
30096;SDS011;16915;51.466;3.610;2022-07-23T06:35:29;3.00;;;1.85;;
30096;SDS011;16915;51.466;3.610;2022-07-23T06:37:54;4.30;;;2.10;;
30096;SDS011;16915;51.466;3.610;2022-07-23T06:40:20;2.78;;;2.03;;
30096;SDS011;16915;51.466;3.610;2022-07-23T06:42:46;4.47;;;2.35;;
30096;SDS011;16915;51.466;3.610;2022-07-23T06:45:11;3.92;;;2.28;;
30096;SDS011;16915;51.466;3.610;2022-07-23T06:47:40;2.72;;;2.05;;
30096;SDS011;16915;51.466;3.610;2022-07-23T06:50:06;3.30;;;2.47;;
30096;SDS011;16915;51.466;3.610;2022-07-23T06:52:32;3.60;;;2.30;;
30096;SDS011;16915;51.466;3.610;2022-07-23T06:54:58;6.00;;;2.65;;
30096;SDS011;16915;51.466;3.610;2022-07-23T06:57:23;4.53;;;2.95;;
30096;SDS011;16915;51.466;3.610;2022-07-23T06:59:50;4.72;;;3.10;;
30096;SDS011;16915;51.466;3.610;2022-07-23T07:02:16;3.38;;;3.05;;
30096;SDS011;16915;51.466;3.610;2022-07-23T07:04:42;5.95;;;3.20;;
30096;SDS011;16915;51.466;3.610;2022-07-23T07:07:08;3.72;;;3.28;;
30096;SDS011;16915;51.466;3.610;2022-07-23T07:09:33;4.63;;;3.33;;
30096;SDS011;16915;51.466;3.610;2022-07-23T07:11:59;3.38;;;3.08;;
30096;SDS011;16915;51.466;3.610;2022-07-23T07:14:24;4.63;;;3.38;;
30096;SDS011;16915;51.466;3.610;2022-07-23T07:16:50;5.35;;;3.72;;
30096;SDS011;16915;51.466;3.610;2022-07-23T07:19:19;4.40;;;3.33;;
30096;SDS011;16915;51.466;3.610;2022-07-23T07:21:44;5.95;;;3.47;;
30096;SDS011;16915;51.466;3.610;2022-07-23T07:24:10;3.30;;;2.95;;
30096;SDS011;16915;51.466;3.610;2022-07-23T07:26:35;3.92;;;3.58;;
30096;SDS011;16915;51.466;3.610;2022-07-23T07:29:01;6.85;;;3.42;;
30096;SDS011;16915;51.466;3.610;2022-07-23T07:31:27;4.57;;;3.42;;
30096;SDS011;16915;51.466;3.610;2022-07-23T07:33:53;4.07;;;3.28;;
30096;SDS011;16915;51.466;3.610;2022-07-23T07:36:21;5.40;;;3.42;;
30096;SDS011;16915;51.466;3.610;2022-07-23T07:38:47;4.45;;;3.15;;
30096;SDS011;16915;51.466;3.610;2022-07-23T07:41:13;5.38;;;3.10;;
30096;SDS011;16915;51.466;3.610;2022-07-23T07:43:38;3.03;;;2.80;;
30096;SDS011;16915;51.466;3.610;2022-07-23T07:46:04;4.72;;;3.40;;
30096;SDS011;16915;51.466;3.610;2022-07-23T07:48:34;6.15;;;3.60;;
30096;SDS011;16915;51.466;3.610;2022-07-23T07:51:01;6.38;;;3.80;;
30096;SDS011;16915;51.466;3.610;2022-07-23T07:53:27;7.38;;;3.67;;
30096;SDS011;16915;51.466;3.610;2022-07-23T07:55:52;4.45;;;3.38;;
30096;SDS011;16915;51.466;3.610;2022-07-23T07:58:18;6.68;;;3.42;;
30096;SDS011;16915;51.466;3.610;2022-07-23T08:00:44;6.05;;;4.00;;
30096;SDS011;16915;51.466;3.610;2022-07-23T08:03:09;5.10;;;2.92;;
30096;SDS011;16915;51.466;3.610;2022-07-23T08:05:35;5.65;;;3.63;;
30096;SDS011;16915;51.466;3.610;2022-07-23T08:08:00;5.47;;;4.20;;
30096;SDS011;16915;51.466;3.610;2022-07-23T08:10:26;5.32;;;3.72;;
30096;SDS011;16915;51.466;3.610;2022-07-23T08:12:53;5.38;;;4.32;;
30096;SDS011;16915;51.466;3.610;2022-07-23T08:15:21;4.75;;;4.35;;
30096;SDS011;16915;51.466;3.610;2022-07-23T08:17:48;7.32;;;4.70;;
30096;SDS011;16915;51.466;3.610;2022-07-23T08:20:15;5.43;;;4.65;;
30096;SDS011;16915;51.466;3.610;2022-07-23T08:22:43;5.95;;;4.97;;
30096;SDS011;16915;51.466;3.610;2022-07-23T08:25:09;7.30;;;5.00;;
30096;SDS011;16915;51.466;3.610;2022-07-23T08:27:35;6.65;;;4.60;;
30096;SDS011;16915;51.466;3.610;2022-07-23T08:30:00;5.55;;;4.82;;
30096;SDS011;16915;51.466;3.610;2022-07-23T08:32:26;5.45;;;4.05;;
30096;SDS011;16915;51.466;3.610;2022-07-23T08:34:53;5.93;;;4.93;;
30096;SDS011;16915;51.466;3.610;2022-07-23T08:37:18;8.13;;;4.13;;
30096;SDS011;16915;51.466;3.610;2022-07-23T08:39:44;8.35;;;5.47;;
30096;SDS011;16915;51.466;3.610;2022-07-23T08:42:09;6.90;;;4.82;;
30096;SDS011;16915;51.466;3.610;2022-07-23T08:44:36;6.03;;;4.78;;
30096;SDS011;16915;51.466;3.610;2022-07-23T08:47:06;5.93;;;5.07;;
30096;SDS011;16915;51.466;3.610;2022-07-23T08:49:32;9.45;;;5.93;;
30096;SDS011;16915;51.466;3.610;2022-07-23T08:51:58;5.10;;;4.60;;
30096;SDS011;16915;51.466;3.610;2022-07-23T08:54:23;6.40;;;5.20;;
30096;SDS011;16915;51.466;3.610;2022-07-23T08:56:49;8.05;;;5.03;;
30096;SDS011;16915;51.466;3.610;2022-07-23T08:59:15;7.72;;;5.82;;
30096;SDS011;16915;51.466;3.610;2022-07-23T09:01:40;5.63;;;5.00;;
30096;SDS011;16915;51.466;3.610;2022-07-23T09:04:06;6.15;;;5.55;;
30096;SDS011;16915;51.466;3.610;2022-07-23T09:06:31;7.20;;;5.60;;
30096;SDS011;16915;51.466;3.610;2022-07-23T09:08:57;9.77;;;5.65;;
30096;SDS011;16915;51.466;3.610;2022-07-23T09:11:23;7.22;;;6.03;;
30096;SDS011;16915;51.466;3.610;2022-07-23T09:13:49;11.35;;;6.00;;
30096;SDS011;16915;51.466;3.610;2022-07-23T09:16:19;6.80;;;5.93;;
30096;SDS011;16915;51.466;3.610;2022-07-23T09:18:57;8.60;;;6.40;;
30096;SDS011;16915;51.466;3.610;2022-07-23T09:21:40;6.90;;;6.25;;
30096;SDS011;16915;51.466;3.610;2022-07-23T09:24:10;8.80;;;6.18;;
30096;SDS011;16915;51.466;3.610;2022-07-23T09:26:44;10.00;;;7.13;;
30096;SDS011;16915;51.466;3.610;2022-07-23T09:29:24;8.23;;;7.43;;
30096;SDS011;16915;51.466;3.610;2022-07-23T09:31:54;9.68;;;8.27;;
30096;SDS011;16915;51.466;3.610;2022-07-23T09:34:36;9.35;;;7.47;;
30096;SDS011;16915;51.466;3.610;2022-07-23T09:37:09;10.85;;;7.80;;
30096;SDS011;16915;51.466;3.610;2022-07-23T09:39:40;11.30;;;8.18;;
30096;SDS011;16915;51.466;3.610;2022-07-23T09:44:54;9.00;;;7.68;;
30096;SDS011;16915;51.466;3.610;2022-07-23T09:47:22;10.25;;;7.43;;
30096;SDS011;16915;51.466;3.610;2022-07-23T09:49:59;12.45;;;8.73;;
30096;SDS011;16915;51.466;3.610;2022-07-23T09:52:52;10.07;;;8.48;;
30096;SDS011;16915;51.466;3.610;2022-07-23T09:55:17;13.18;;;8.38;;
30096;SDS011;16915;51.466;3.610;2022-07-23T09:57:44;11.65;;;8.68;;
30096;SDS011;16915;51.466;3.610;2022-07-23T10:00:11;10.48;;;7.85;;
30096;SDS011;16915;51.466;3.610;2022-07-23T10:02:37;12.00;;;8.40;;
30096;SDS011;16915;51.466;3.610;2022-07-23T10:05:04;8.70;;;7.00;;
30096;SDS011;16915;51.466;3.610;2022-07-23T10:07:31;12.00;;;8.52;;
30096;SDS011;16915;51.466;3.610;2022-07-23T10:10:00;11.55;;;9.02;;
30096;SDS011;16915;51.466;3.610;2022-07-23T10:15:54;10.35;;;8.98;;
30096;SDS011;16915;51.466;3.610;2022-07-23T10:18:29;9.18;;;8.25;;
30096;SDS011;16915;51.466;3.610;2022-07-23T10:20:55;13.63;;;9.70;;
30096;SDS011;16915;51.466;3.610;2022-07-23T10:23:28;13.68;;;10.95;;
30096;SDS011;16915;51.466;3.610;2022-07-23T10:29:16;10.23;;;9.05;;
30096;SDS011;16915;51.466;3.610;2022-07-23T10:38:27;13.27;;;11.23;;
30096;SDS011;16915;51.466;3.610;2022-07-23T10:41:03;12.85;;;11.45;;
30096;SDS011;16915;51.466;3.610;2022-07-23T10:43:33;12.43;;;10.87;;
30096;SDS011;16915;51.466;3.610;2022-07-23T10:54:41;16.52;;;11.73;;
30096;SDS011;16915;51.466;3.610;2022-07-23T10:57:08;13.43;;;10.02;;
30096;SDS011;16915;51.466;3.610;2022-07-23T11:02:25;14.82;;;10.68;;
30096;SDS011;16915;51.466;3.610;2022-07-23T11:04:53;11.15;;;9.90;;
30096;SDS011;16915;51.466;3.610;2022-07-23T11:07:23;15.50;;;11.15;;
30096;SDS011;16915;51.466;3.610;2022-07-23T11:09:49;12.45;;;11.25;;
30096;SDS011;16915;51.466;3.610;2022-07-23T11:15:03;14.77;;;11.25;;
30096;SDS011;16915;51.466;3.610;2022-07-23T11:17:30;11.65;;;9.98;;
30096;SDS011;16915;51.466;3.610;2022-07-23T11:22:38;13.23;;;10.68;;
30096;SDS011;16915;51.466;3.610;2022-07-23T11:25:14;11.30;;;9.50;;
30096;SDS011;16915;51.466;3.610;2022-07-23T11:28:10;8.63;;;7.78;;
30096;SDS011;16915;51.466;3.610;2022-07-23T11:30:45;9.23;;;8.32;;
30096;SDS011;16915;51.466;3.610;2022-07-23T11:35:39;11.68;;;8.57;;
30096;SDS011;16915;51.466;3.610;2022-07-23T11:40:39;9.63;;;8.60;;
30096;SDS011;16915;51.466;3.610;2022-07-23T11:43:06;10.50;;;9.48;;
30096;SDS011;16915;51.466;3.610;2022-07-23T11:45:41;8.38;;;7.57;;
30096;SDS011;16915;51.466;3.610;2022-07-23T11:48:14;8.63;;;7.70;;
30096;SDS011;16915;51.466;3.610;2022-07-23T11:50:43;11.73;;;9.43;;
30096;SDS011;16915;51.466;3.610;2022-07-23T11:53:08;12.70;;;10.70;;
30096;SDS011;16915;51.466;3.610;2022-07-23T11:55:46;9.95;;;8.25;;
30096;SDS011;16915;51.466;3.610;2022-07-23T11:58:18;9.07;;;7.82;;
30096;SDS011;16915;51.466;3.610;2022-07-23T12:01:17;10.35;;;9.45;;
30096;SDS011;16915;51.466;3.610;2022-07-23T12:04:02;10.48;;;9.40;;
30096;SDS011;16915;51.466;3.610;2022-07-23T12:06:37;10.57;;;9.70;;
30096;SDS011;16915;51.466;3.610;2022-07-23T12:09:17;11.35;;;9.15;;
30096;SDS011;16915;51.466;3.610;2022-07-23T12:21:27;9.95;;;8.05;;
30096;SDS011;16915;51.466;3.610;2022-07-23T12:24:19;10.45;;;9.35;;
30096;SDS011;16915;51.466;3.610;2022-07-23T12:33:39;9.65;;;8.60;;
30096;SDS011;16915;51.466;3.610;2022-07-23T12:36:38;11.73;;;10.60;;
30096;SDS011;16915;51.466;3.610;2022-07-23T12:39:22;13.80;;;11.85;;
30096;SDS011;16915;51.466;3.610;2022-07-23T12:49:07;12.70;;;11.52;;
30096;SDS011;16915;51.466;3.610;2022-07-23T12:51:35;10.43;;;9.48;;
30096;SDS011;16915;51.466;3.610;2022-07-23T12:54:17;11.60;;;10.48;;
30096;SDS011;16915;51.466;3.610;2022-07-23T12:57:14;10.52;;;9.57;;
30096;SDS011;16915;51.466;3.610;2022-07-23T12:59:53;9.38;;;8.57;;
30096;SDS011;16915;51.466;3.610;2022-07-23T13:02:46;10.07;;;9.07;;
30096;SDS011;16915;51.466;3.610;2022-07-23T13:05:17;10.05;;;8.93;;
30096;SDS011;16915;51.466;3.610;2022-07-23T13:07:44;11.30;;;9.30;;
30096;SDS011;16915;51.466;3.610;2022-07-23T13:10:12;7.70;;;6.95;;
30096;SDS011;16915;51.466;3.610;2022-07-23T13:12:40;11.80;;;10.80;;
30096;SDS011;16915;51.466;3.610;2022-07-23T13:15:07;11.57;;;10.48;;
30096;SDS011;16915;51.466;3.610;2022-07-23T13:17:33;12.13;;;11.18;;
30096;SDS011;16915;51.466;3.610;2022-07-23T13:20:00;9.93;;;8.95;;
30096;SDS011;16915;51.466;3.610;2022-07-23T13:22:28;7.82;;;6.25;;
30096;SDS011;16915;51.466;3.610;2022-07-23T13:24:54;6.47;;;5.95;;
30096;SDS011;16915;51.466;3.610;2022-07-23T13:27:20;9.70;;;6.38;;
30096;SDS011;16915;51.466;3.610;2022-07-23T13:29:45;7.35;;;6.68;;
30096;SDS011;16915;51.466;3.610;2022-07-23T13:32:12;7.15;;;6.47;;
30096;SDS011;16915;51.466;3.610;2022-07-23T13:34:38;7.47;;;6.07;;
30096;SDS011;16915;51.466;3.610;2022-07-23T13:37:03;6.22;;;5.65;;
30096;SDS011;16915;51.466;3.610;2022-07-23T13:39:38;6.20;;;5.60;;
30096;SDS011;16915;51.466;3.610;2022-07-23T13:42:04;7.90;;;6.25;;
30096;SDS011;16915;51.466;3.610;2022-07-23T13:47:19;9.38;;;7.75;;
30096;SDS011;16915;51.466;3.610;2022-07-23T13:49:53;6.78;;;6.25;;
30096;SDS011;16915;51.466;3.610;2022-07-23T13:52:22;5.70;;;5.20;;
30096;SDS011;16915;51.466;3.610;2022-07-23T13:54:48;7.25;;;6.65;;
30096;SDS011;16915;51.466;3.610;2022-07-23T13:57:16;6.00;;;5.60;;
30096;SDS011;16915;51.466;3.610;2022-07-23T13:59:50;8.30;;;7.47;;
30096;SDS011;16915;51.466;3.610;2022-07-23T14:02:21;8.48;;;6.70;;
30096;SDS011;16915;51.466;3.610;2022-07-23T14:04:49;7.70;;;6.32;;
30096;SDS011;16915;51.466;3.610;2022-07-23T14:07:15;6.07;;;5.57;;
30096;SDS011;16915;51.466;3.610;2022-07-23T14:09:41;6.88;;;5.47;;
30096;SDS011;16915;51.466;3.610;2022-07-23T14:12:15;6.80;;;6.25;;
30096;SDS011;16915;51.466;3.610;2022-07-23T14:14:53;10.85;;;7.22;;
30096;SDS011;16915;51.466;3.610;2022-07-23T14:17:28;6.57;;;6.03;;
30096;SDS011;16915;51.466;3.610;2022-07-23T14:23:33;7.50;;;6.75;;
30096;SDS011;16915;51.466;3.610;2022-07-23T14:26:09;8.30;;;6.50;;
30096;SDS011;16915;51.466;3.610;2022-07-23T14:28:37;9.57;;;6.18;;
30096;SDS011;16915;51.466;3.610;2022-07-23T14:31:10;7.68;;;6.03;;
30096;SDS011;16915;51.466;3.610;2022-07-23T14:33:36;6.65;;;6.05;;
30096;SDS011;16915;51.466;3.610;2022-07-23T14:36:02;6.80;;;5.22;;
30096;SDS011;16915;51.466;3.610;2022-07-23T14:38:38;6.30;;;5.65;;
30096;SDS011;16915;51.466;3.610;2022-07-23T14:41:03;7.13;;;6.18;;
30096;SDS011;16915;51.466;3.610;2022-07-23T14:43:31;6.85;;;6.28;;
30096;SDS011;16915;51.466;3.610;2022-07-23T14:45:57;6.43;;;5.82;;
30096;SDS011;16915;51.466;3.610;2022-07-23T14:48:28;6.05;;;5.35;;
30096;SDS011;16915;51.466;3.610;2022-07-23T14:50:53;8.90;;;6.50;;
30096;SDS011;16915;51.466;3.610;2022-07-23T14:53:21;5.97;;;5.45;;
30096;SDS011;16915;51.466;3.610;2022-07-23T14:55:48;5.45;;;4.95;;
30096;SDS011;16915;51.466;3.610;2022-07-23T14:58:14;7.70;;;6.47;;
30096;SDS011;16915;51.466;3.610;2022-07-23T15:00:39;6.38;;;4.72;;
30096;SDS011;16915;51.466;3.610;2022-07-23T15:03:05;8.85;;;5.07;;
30096;SDS011;16915;51.466;3.610;2022-07-23T15:05:31;8.25;;;6.35;;
30096;SDS011;16915;51.466;3.610;2022-07-23T15:07:56;9.88;;;6.88;;
30096;SDS011;16915;51.466;3.610;2022-07-23T15:10:22;7.75;;;6.03;;
30096;SDS011;16915;51.466;3.610;2022-07-23T15:12:48;8.95;;;6.47;;
30096;SDS011;16915;51.466;3.610;2022-07-23T15:15:14;5.65;;;5.15;;
30096;SDS011;16915;51.466;3.610;2022-07-23T15:17:42;5.88;;;5.28;;
30096;SDS011;16915;51.466;3.610;2022-07-23T15:20:08;6.15;;;5.53;;
30096;SDS011;16915;51.466;3.610;2022-07-23T15:22:34;6.28;;;5.40;;
30096;SDS011;16915;51.466;3.610;2022-07-23T15:25:00;12.88;;;6.22;;
30096;SDS011;16915;51.466;3.610;2022-07-23T15:27:36;6.05;;;5.47;;
30096;SDS011;16915;51.466;3.610;2022-07-23T15:32:59;5.05;;;4.65;;
30096;SDS011;16915;51.466;3.610;2022-07-23T15:42:23;8.75;;;5.80;;
30096;SDS011;16915;51.466;3.610;2022-07-23T15:44:48;5.60;;;5.03;;
30096;SDS011;16915;51.466;3.610;2022-07-23T15:47:15;12.00;;;10.02;;
30096;SDS011;16915;51.466;3.610;2022-07-23T15:49:54;6.70;;;6.07;;
30096;SDS011;16915;51.466;3.610;2022-07-23T15:52:22;8.45;;;6.95;;
30096;SDS011;16915;51.466;3.610;2022-07-23T16:00:44;6.22;;;5.72;;
30096;SDS011;16915;51.466;3.610;2022-07-23T16:07:19;5.53;;;5.03;;
30096;SDS011;16915;51.466;3.610;2022-07-23T16:09:42;8.63;;;6.13;;
30096;SDS011;16915;51.466;3.610;2022-07-23T16:12:39;7.30;;;5.47;;
30096;SDS011;16915;51.466;3.610;2022-07-23T16:15:21;6.95;;;6.13;;
30096;SDS011;16915;51.466;3.610;2022-07-23T16:21:46;7.32;;;6.72;;
30096;SDS011;16915;51.466;3.610;2022-07-23T16:27:57;9.82;;;6.88;;
30096;SDS011;16915;51.466;3.610;2022-07-23T16:30:56;6.95;;;6.20;;
30096;SDS011;16915;51.466;3.610;2022-07-23T16:33:29;7.95;;;7.18;;
30096;SDS011;16915;51.466;3.610;2022-07-23T16:35:55;7.75;;;6.93;;
30096;SDS011;16915;51.466;3.610;2022-07-23T16:38:22;6.45;;;5.95;;
30096;SDS011;16915;51.466;3.610;2022-07-23T16:40:51;7.93;;;6.35;;
30096;SDS011;16915;51.466;3.610;2022-07-23T16:43:17;8.05;;;7.28;;
30096;SDS011;16915;51.466;3.610;2022-07-23T16:45:59;7.22;;;6.60;;
30096;SDS011;16915;51.466;3.610;2022-07-23T16:51:33;7.82;;;6.85;;
30096;SDS011;16915;51.466;3.610;2022-07-23T16:54:12;10.00;;;8.93;;
30096;SDS011;16915;51.466;3.610;2022-07-23T16:56:37;10.63;;;8.20;;